Kezdőlap
METAR-TAF:

METAR-TAF

Repülőterek :

Vadsø, Norvégia

földrajzi szélesség: 70-04N, földrajzi hosszúság: 029-51E, magasság: 3 m

Jelenlegi meteorológiai megfigyelések

A jelentés 41 perccel ezelõtt készült, 09:50 UTC
Nyugati szél 9 kt
Hőmérséklet 3°C
Páratartalom 81%
Légköri nyomás 986 hPa
Látótávolság 10 km, vagy több
Kevés felhő 4000 lábon

METAR: ENVD 230950Z 27009KT 9999 FEW040 03/00 Q0986

Idő: 12:31 (10:31 UTC)

Előrejelzés

A jelentés 2 órával és 31 perccel ezelõtt készült, 08:00 UTC
Az előrejelzés 23-én 09 óra UTC és 23-én 18 óra UTC között érvényes
Nyugat-északnyugati szél 9 kt
Látótávolság 10 km, vagy több
Kevés felhő 2500 lábon

TAF: ENVD 230800Z 2309/2318 29009KT 9999 FEW025

Meteorológiai megfigyelések és előrejelzések több, mint 4000 repülőtéren (METAR és TAF jelentéseket).

A térképen piros és sárga pontok jelzik az elérhető meteorológiai állomásokat.

Mozgassa az egeret a pont fölött, hogy megjelenjen az állomás neve.

Azután kattintson az időjárási megfigyelések és előrejelzések megtekintéséhez.

A térkép megváltoztatása: kattintson a fekete keresztel jelölt zöld gombra ráközelítéshez, a vonallal jelölt zöld gombra távolításhoz, vagy a zöld nyilakra a szomszédos térképek eléréséhez.


METAR-TAF: